createdAt,value
2018-10-16T00:00:08.388Z,0.00
2018-10-16T00:01:08.383Z,0.00
2018-10-16T00:02:08.373Z,0.00
2018-10-16T00:03:08.455Z,0.00
2018-10-16T00:04:08.341Z,0.00
2018-10-16T00:05:08.330Z,0.00
2018-10-16T00:06:08.322Z,0.00
2018-10-16T00:07:08.320Z,0.00
2018-10-16T00:08:08.327Z,0.00
2018-10-16T00:09:08.285Z,0.00
2018-10-16T00:10:08.279Z,0.00
2018-10-16T00:11:08.265Z,0.00
2018-10-16T00:12:08.251Z,0.00
2018-10-16T00:13:08.254Z,0.00
2018-10-16T00:14:08.234Z,0.00
2018-10-16T00:15:08.216Z,0.00
2018-10-16T00:16:08.206Z,0.00
2018-10-16T00:17:08.200Z,0.00
2018-10-16T00:18:08.198Z,0.00
2018-10-16T00:19:08.174Z,0.00
2018-10-16T00:20:08.162Z,0.00
2018-10-16T00:21:08.154Z,0.00
2018-10-16T00:22:08.137Z,0.00
2018-10-16T00:23:08.145Z,0.00
2018-10-16T00:24:08.116Z,0.00
2018-10-16T00:25:08.106Z,0.00
2018-10-16T00:26:08.102Z,0.00
2018-10-16T00:27:08.105Z,0.00
2018-10-16T00:28:08.082Z,0.00
2018-10-16T00:29:08.061Z,0.00
2018-10-16T00:30:08.058Z,0.00
2018-10-16T00:31:08.037Z,0.00
2018-10-16T00:32:08.045Z,0.00
2018-10-16T00:33:08.023Z,0.00
2018-10-16T00:34:08.013Z,0.00
2018-10-16T00:35:07.990Z,0.00
2018-10-16T00:36:07.982Z,0.00
2018-10-16T00:37:07.982Z,0.00
2018-10-16T00:38:07.957Z,0.00
2018-10-16T00:39:07.957Z,0.00
2018-10-16T00:40:07.935Z,0.00
2018-10-16T00:41:07.925Z,0.00
2018-10-16T00:42:07.916Z,0.00
2018-10-16T00:43:07.900Z,0.00
2018-10-16T00:44:07.904Z,0.00
2018-10-16T00:45:07.879Z,0.00
2018-10-16T00:46:07.872Z,0.00
2018-10-16T00:47:07.854Z,0.00
2018-10-16T00:48:07.847Z,0.00
2018-10-16T00:49:07.845Z,0.00
2018-10-16T00:50:07.824Z,0.00
2018-10-16T00:51:07.809Z,0.00
2018-10-16T00:52:07.798Z,0.00
2018-10-16T00:53:07.789Z,0.00
2018-10-16T00:54:07.785Z,0.00
2018-10-16T00:55:07.778Z,0.00
2018-10-16T00:56:07.752Z,0.00
2018-10-16T00:57:07.745Z,0.00
2018-10-16T00:58:07.729Z,0.00
2018-10-16T00:59:07.743Z,0.00
2018-10-16T01:00:07.712Z,0.00
2018-10-16T01:02:16.419Z,0.00
2018-10-16T01:03:16.406Z,0.00
2018-10-16T01:04:16.408Z,0.00
2018-10-16T01:05:16.384Z,0.00
2018-10-16T01:06:16.375Z,0.00
2018-10-16T01:07:16.370Z,0.00
2018-10-16T01:08:16.406Z,0.00
2018-10-16T01:09:16.354Z,0.00
2018-10-16T01:10:16.326Z,0.00
2018-10-16T01:11:16.318Z,0.00
2018-10-16T01:12:16.313Z,0.00
2018-10-16T01:13:16.324Z,0.00
2018-10-16T01:14:16.299Z,0.00
2018-10-16T01:15:16.272Z,0.00
2018-10-16T01:16:16.261Z,0.00
2018-10-16T01:17:16.249Z,0.00
2018-10-16T01:18:16.248Z,0.00
2018-10-16T01:19:16.250Z,0.00
2018-10-16T01:20:16.238Z,0.00
2018-10-16T01:21:16.207Z,0.00
2018-10-16T01:22:16.204Z,0.00
2018-10-16T01:23:16.196Z,0.00
2018-10-16T01:24:16.181Z,0.00
2018-10-16T01:25:16.163Z,0.00
2018-10-16T01:26:16.148Z,0.00
2018-10-16T01:27:16.136Z,0.00
2018-10-16T01:28:16.134Z,0.00
2018-10-16T01:29:16.149Z,0.00
2018-10-16T01:30:16.129Z,0.00
2018-10-16T01:31:16.109Z,0.00
2018-10-16T01:33:26.553Z,0.00
2018-10-16T01:34:25.322Z,0.00
2018-10-16T01:35:25.277Z,0.00
2018-10-16T01:36:25.271Z,0.00
2018-10-16T01:37:25.249Z,0.00
2018-10-16T01:38:25.244Z,0.00
2018-10-16T01:39:25.240Z,0.00
2018-10-16T01:40:25.217Z,0.00
2018-10-16T01:41:25.205Z,0.00
2018-10-16T01:42:25.194Z,0.00
2018-10-16T01:43:25.184Z,0.00
2018-10-16T01:44:25.185Z,0.00
2018-10-16T01:45:25.165Z,0.00
2018-10-16T01:46:25.149Z,0.00
2018-10-16T01:47:25.139Z,0.00
2018-10-16T01:48:25.126Z,0.00
2018-10-16T01:49:25.131Z,0.00
2018-10-16T01:50:25.105Z,0.00
2018-10-16T01:51:25.092Z,0.00
2018-10-16T01:52:25.087Z,0.00
2018-10-16T01:53:25.068Z,0.00
2018-10-16T01:54:25.083Z,0.00
2018-10-16T01:55:25.047Z,0.00
2018-10-16T01:56:25.037Z,0.00
2018-10-16T01:57:25.025Z,0.00
2018-10-16T01:58:25.011Z,0.00
2018-10-16T01:59:25.014Z,0.00
2018-10-16T02:00:25.001Z,0.00
2018-10-16T02:01:24.978Z,0.00
2018-10-16T02:02:24.971Z,0.00
2018-10-16T02:03:24.956Z,0.00
2018-10-16T02:04:24.948Z,0.00
2018-10-16T02:05:24.946Z,0.00
2018-10-16T02:06:24.924Z,0.00
2018-10-16T02:07:24.925Z,0.00
2018-10-16T02:08:24.901Z,0.00
2018-10-16T02:09:24.889Z,0.00
2018-10-16T02:10:24.897Z,0.00
2018-10-16T02:11:24.864Z,0.00
2018-10-16T02:12:24.857Z,0.00
2018-10-16T02:13:24.841Z,0.00
2018-10-16T02:14:24.829Z,0.00
2018-10-16T02:15:24.835Z,0.00
2018-10-16T02:16:24.808Z,0.00
2018-10-16T02:17:24.822Z,0.00
2018-10-16T02:18:24.791Z,0.00
2018-10-16T02:19:24.774Z,0.00
2018-10-16T02:20:24.790Z,0.00
2018-10-16T02:21:24.756Z,0.00
2018-10-16T02:22:24.740Z,0.00
2018-10-16T02:23:24.730Z,0.00
2018-10-16T02:24:24.722Z,0.00
2018-10-16T02:25:24.710Z,0.00
2018-10-16T02:26:24.714Z,0.00
2018-10-16T02:27:24.684Z,0.00
2018-10-16T02:28:24.685Z,0.00
2018-10-16T02:29:24.663Z,0.00
2018-10-16T02:30:24.651Z,0.00
2018-10-16T02:31:24.657Z,0.00
2018-10-16T02:32:24.629Z,0.00
2018-10-16T02:33:24.618Z,0.00
2018-10-16T02:34:24.608Z,0.00
2018-10-16T02:35:24.596Z,0.00
2018-10-16T02:36:24.604Z,0.00
2018-10-16T02:37:24.573Z,0.00
2018-10-16T02:38:24.561Z,0.00
2018-10-16T02:39:24.554Z,0.00
2018-10-16T02:40:24.539Z,0.00
2018-10-16T02:41:24.537Z,0.00
2018-10-16T02:44:42.938Z,0.00
2018-10-16T02:45:42.943Z,0.00
2018-10-16T02:46:42.919Z,0.00
2018-10-16T02:47:42.905Z,0.00
2018-10-16T02:48:42.894Z,0.00
2018-10-16T02:49:42.886Z,0.00
2018-10-16T02:50:42.888Z,0.00
2018-10-16T02:51:42.862Z,0.00
2018-10-16T02:52:42.849Z,0.00
2018-10-16T02:53:42.839Z,0.00
2018-10-16T02:54:42.829Z,0.00
2018-10-16T02:55:42.830Z,0.00
2018-10-16T02:56:42.807Z,0.00
2018-10-16T02:57:42.795Z,0.00
2018-10-16T02:58:42.780Z,0.00
2018-10-16T02:59:42.787Z,0.00
2018-10-16T03:00:42.773Z,0.00
2018-10-16T03:01:42.746Z,0.00
2018-10-16T03:02:42.741Z,0.00
2018-10-16T03:03:42.727Z,0.00
2018-10-16T03:04:42.713Z,0.00
2018-10-16T03:05:42.722Z,0.00
2018-10-16T03:06:42.698Z,0.00
2018-10-16T03:07:42.681Z,0.00
2018-10-16T03:08:42.670Z,0.00
2018-10-16T03:09:42.666Z,0.00
2018-10-16T03:10:42.668Z,0.00
2018-10-16T03:11:42.637Z,0.00
2018-10-16T03:12:42.640Z,0.00
2018-10-16T03:13:42.624Z,0.00
2018-10-16T03:14:42.601Z,0.00
2018-10-16T03:15:42.589Z,0.00
2018-10-16T03:16:42.607Z,0.00
2018-10-16T03:17:42.568Z,0.00
2018-10-16T03:18:42.555Z,0.00
2018-10-16T03:19:42.544Z,0.00
2018-10-16T03:20:42.565Z,0.00
2018-10-16T03:21:42.533Z,0.00
2018-10-16T03:22:42.512Z,0.00
2018-10-16T03:23:42.500Z,0.00
2018-10-16T03:24:42.492Z,0.00
2018-10-16T03:25:42.475Z,0.00
2018-10-16T03:26:42.476Z,0.00
2018-10-16T03:29:06.412Z,0.00
2018-10-16T03:29:51.161Z,0.00
2018-10-16T03:30:51.154Z,0.00
2018-10-16T03:31:51.152Z,0.00
2018-10-16T03:32:51.129Z,0.00
2018-10-16T03:33:51.123Z,0.00
2018-10-16T03:34:51.105Z,0.00
2018-10-16T03:35:51.093Z,0.00
2018-10-16T03:36:51.091Z,0.00
2018-10-16T03:37:51.072Z,0.00
2018-10-16T03:38:51.060Z,0.00
2018-10-16T03:39:51.054Z,0.00
2018-10-16T03:40:51.036Z,0.00
2018-10-16T03:41:51.036Z,0.00
2018-10-16T03:42:51.017Z,0.00
2018-10-16T03:43:51.004Z,0.00
2018-10-16T03:44:50.992Z,0.00
2018-10-16T03:45:51.057Z,0.00
2018-10-16T03:46:50.976Z,0.00
2018-10-16T03:47:50.959Z,0.00
2018-10-16T03:48:50.950Z,0.00
2018-10-16T03:49:50.932Z,0.00
2018-10-16T03:50:50.923Z,0.00
2018-10-16T03:51:50.925Z,0.00
2018-10-16T03:52:50.897Z,0.00
2018-10-16T03:53:50.893Z,0.00
2018-10-16T03:54:50.876Z,0.00
2018-10-16T03:55:50.873Z,0.00
2018-10-16T03:56:50.861Z,0.00
2018-10-16T03:57:50.844Z,0.00
2018-10-16T03:58:50.830Z,0.00
2018-10-16T03:59:50.823Z,0.00
2018-10-16T04:00:50.808Z,0.00
2018-10-16T04:01:50.806Z,0.00
2018-10-16T04:02:50.784Z,0.00
2018-10-16T04:03:50.776Z,0.00
2018-10-16T04:04:50.770Z,0.00
2018-10-16T04:05:50.757Z,0.00
2018-10-16T04:06:50.843Z,0.00
2018-10-16T04:07:50.732Z,0.00
2018-10-16T04:08:50.723Z,0.00
2018-10-16T04:09:50.708Z,0.00
2018-10-16T04:10:50.716Z,0.00
2018-10-16T04:11:50.697Z,0.00
2018-10-16T04:12:50.671Z,0.00
2018-10-16T04:13:50.685Z,0.00
2018-10-16T04:14:50.649Z,0.00
2018-10-16T04:15:50.645Z,0.00
2018-10-16T04:16:50.641Z,0.00
2018-10-16T04:17:50.617Z,0.00
2018-10-16T04:18:50.605Z,0.00
2018-10-16T04:19:50.600Z,0.00
2018-10-16T04:20:50.585Z,0.00
2018-10-16T04:21:50.584Z,0.00
2018-10-16T04:22:50.592Z,0.00
2018-10-16T04:23:50.557Z,0.00
2018-10-16T04:24:50.540Z,0.00
2018-10-16T04:25:50.528Z,0.00
2018-10-16T04:26:50.518Z,0.00
2018-10-16T04:27:50.517Z,0.00
2018-10-16T04:28:50.513Z,0.00
2018-10-16T04:29:50.483Z,0.00
2018-10-16T04:30:50.472Z,0.00
2018-10-16T04:31:50.465Z,0.00
2018-10-16T04:32:50.467Z,0.00
2018-10-16T04:33:50.443Z,0.00
2018-10-16T04:34:50.429Z,0.00
2018-10-16T04:35:50.417Z,0.00
2018-10-16T04:36:50.404Z,0.00
2018-10-16T04:37:50.405Z,0.00
2018-10-16T04:38:50.381Z,0.00
2018-10-16T04:39:50.374Z,0.00
2018-10-16T04:40:50.361Z,0.00
2018-10-16T04:41:50.348Z,0.00
2018-10-16T04:42:50.350Z,0.00
2018-10-16T04:43:50.435Z,0.00
2018-10-16T04:44:50.330Z,0.00
2018-10-16T04:45:50.314Z,0.00
2018-10-16T04:46:50.291Z,0.00
2018-10-16T04:47:50.288Z,0.00
2018-10-16T04:48:50.269Z,0.00
2018-10-16T04:49:50.274Z,0.00
2018-10-16T04:50:50.244Z,0.00
2018-10-16T04:51:50.235Z,0.00
2018-10-16T04:52:50.233Z,0.00
2018-10-16T04:53:50.211Z,0.00
2018-10-16T04:54:50.207Z,0.00
2018-10-16T04:55:50.192Z,0.00
2018-10-16T04:56:50.178Z,0.00
2018-10-16T04:57:50.181Z,0.00
2018-10-16T04:58:50.154Z,0.00
2018-10-16T04:59:50.145Z,0.00
2018-10-16T05:00:50.133Z,0.00
2018-10-16T05:01:50.127Z,0.00
2018-10-16T05:02:50.126Z,0.00
2018-10-16T05:03:50.099Z,0.00
2018-10-16T05:04:50.101Z,0.00
2018-10-16T05:05:50.077Z,0.00
2018-10-16T05:06:50.080Z,0.00
2018-10-16T05:07:50.066Z,0.00
2018-10-16T05:08:50.044Z,0.00
2018-10-16T05:09:50.037Z,0.00
2018-10-16T05:10:50.023Z,0.00
2018-10-16T05:11:50.010Z,0.00
2018-10-16T05:12:50.013Z,0.00
2018-10-16T05:13:49.989Z,0.00
2018-10-16T05:14:49.978Z,0.00
2018-10-16T05:15:49.991Z,0.00
2018-10-16T05:16:50.002Z,0.00
2018-10-16T05:17:49.955Z,0.00
2018-10-16T05:18:49.943Z,0.00
2018-10-16T05:19:49.922Z,0.00
2018-10-16T05:20:49.916Z,0.00
2018-10-16T05:21:49.900Z,0.00
2018-10-16T05:22:49.896Z,0.00
2018-10-16T05:23:49.883Z,4.00
2018-10-16T05:24:49.868Z,0.00
2018-10-16T05:25:49.862Z,0.00
2018-10-16T05:26:49.844Z,4.00
2018-10-16T05:27:49.843Z,0.00
2018-10-16T05:28:49.825Z,4.00
2018-10-16T05:29:49.812Z,4.00
2018-10-16T05:30:49.817Z,4.00
2018-10-16T05:31:49.788Z,8.00
2018-10-16T05:32:49.789Z,8.00
2018-10-16T05:33:49.771Z,8.00
2018-10-16T05:34:49.757Z,8.00
2018-10-16T05:35:49.751Z,12.00
2018-10-16T05:36:49.738Z,12.00
2018-10-16T05:37:49.737Z,16.00
2018-10-16T05:38:49.713Z,16.00
2018-10-16T05:39:49.707Z,20.00
2018-10-16T05:40:49.699Z,20.00
2018-10-16T05:41:49.682Z,24.00
2018-10-16T05:42:49.691Z,24.00
2018-10-16T05:43:49.662Z,28.00
2018-10-16T05:44:49.652Z,32.00
2018-10-16T05:45:49.646Z,36.00
2018-10-16T05:46:49.632Z,44.00
2018-10-16T05:47:49.627Z,48.00
2018-10-16T05:48:49.605Z,52.00
2018-10-16T05:49:49.592Z,56.00
2018-10-16T05:50:49.581Z,64.00
2018-10-16T05:51:49.572Z,68.00
2018-10-16T05:52:49.589Z,72.00
2018-10-16T05:53:49.557Z,80.00
2018-10-16T05:54:49.537Z,88.00
2018-10-16T05:55:49.529Z,92.00
2018-10-16T05:56:49.519Z,100.00
2018-10-16T05:57:49.503Z,108.00
2018-10-16T05:58:49.524Z,112.00
2018-10-16T05:59:49.485Z,120.00
2018-10-16T06:00:49.473Z,128.00
2018-10-16T06:01:49.469Z,132.00
2018-10-16T06:02:49.450Z,144.00
2018-10-16T06:03:49.453Z,152.00
2018-10-16T06:04:49.432Z,156.00
2018-10-16T06:05:49.467Z,168.00
2018-10-16T06:06:49.410Z,176.00
2018-10-16T06:07:49.396Z,184.00
2018-10-16T06:08:49.400Z,196.00
2018-10-16T06:09:49.377Z,204.00
2018-10-16T06:10:49.381Z,208.00
2018-10-16T06:11:49.360Z,224.00
2018-10-16T06:12:49.348Z,228.00
2018-10-16T06:13:49.355Z,236.00
2018-10-16T06:14:49.321Z,248.00
2018-10-16T06:15:49.312Z,256.00
2018-10-16T06:16:49.316Z,264.00
2018-10-16T06:17:49.299Z,276.00
2018-10-16T06:18:49.303Z,284.00
2018-10-16T06:19:49.267Z,296.00
2018-10-16T06:20:49.260Z,304.00
2018-10-16T06:21:49.245Z,312.00
2018-10-16T06:22:49.233Z,324.00
2018-10-16T06:23:49.235Z,336.00
2018-10-16T06:24:49.223Z,344.00
2018-10-16T06:25:49.219Z,356.00
2018-10-16T06:26:49.191Z,360.00
2018-10-16T06:27:49.235Z,372.00
2018-10-16T06:28:49.179Z,380.00
2018-10-16T06:29:49.157Z,388.00
2018-10-16T06:30:49.148Z,400.00
2018-10-16T06:31:49.136Z,404.00
2018-10-16T06:32:49.128Z,416.00
2018-10-16T06:33:49.132Z,428.00
2018-10-16T06:34:49.104Z,440.00
2018-10-16T06:35:49.092Z,444.00
2018-10-16T06:36:49.079Z,456.00
2018-10-16T06:37:49.073Z,464.00
2018-10-16T06:38:49.072Z,468.00
2018-10-16T06:39:49.095Z,484.00
2018-10-16T06:40:49.163Z,492.00
2018-10-16T06:41:49.031Z,504.00
2018-10-16T06:42:49.014Z,508.00
2018-10-16T06:43:49.073Z,520.00
2018-10-16T06:44:49.006Z,528.00
2018-10-16T06:45:48.996Z,536.00
2018-10-16T06:46:48.969Z,540.00
2018-10-16T06:47:49.045Z,552.00
2018-10-16T06:48:49.311Z,560.00
2018-10-16T06:49:48.938Z,568.00
2018-10-16T06:50:48.927Z,580.00
2018-10-16T06:51:48.919Z,584.00
2018-10-16T06:52:48.903Z,592.00
2018-10-16T06:53:48.904Z,600.00
2018-10-16T06:54:48.987Z,608.00
2018-10-16T06:55:48.872Z,616.00
2018-10-16T06:56:48.864Z,620.00
2018-10-16T06:57:48.863Z,632.00
2018-10-16T06:58:48.853Z,636.00
2018-10-16T06:59:48.837Z,644.00
2018-10-16T07:00:48.815Z,656.00
2018-10-16T07:01:48.807Z,668.00
2018-10-16T07:02:48.801Z,676.00
2018-10-16T07:03:48.792Z,684.00
2018-10-16T07:04:48.786Z,692.00
2018-10-16T07:05:48.764Z,700.00
2018-10-16T07:06:48.836Z,708.00
2018-10-16T07:07:48.751Z,716.00
2018-10-16T07:08:48.743Z,728.00
2018-10-16T07:09:48.732Z,736.00
2018-10-16T07:10:48.711Z,744.00
2018-10-16T07:11:48.698Z,752.00
2018-10-16T07:12:48.687Z,756.00
2018-10-16T07:13:48.688Z,764.00
2018-10-16T07:14:48.770Z,772.00
2018-10-16T07:18:06.347Z,800.00
2018-10-16T07:19:06.344Z,804.00
2018-10-16T07:20:06.348Z,812.00
2018-10-16T07:22:15.031Z,828.00
2018-10-16T07:23:15.068Z,836.00
2018-10-16T07:24:15.008Z,844.00
2018-10-16T07:25:15.007Z,856.00
2018-10-16T07:26:14.986Z,864.00
2018-10-16T07:27:14.979Z,876.00
2018-10-16T07:28:14.973Z,884.00
2018-10-16T07:29:14.953Z,892.00
2018-10-16T07:30:15.145Z,900.00
2018-10-16T07:31:14.932Z,908.00
2018-10-16T07:32:14.944Z,916.00
2018-10-16T07:33:14.916Z,920.00
2018-10-16T07:34:14.925Z,932.00
2018-10-16T07:35:14.921Z,940.00
2018-10-16T07:36:14.875Z,944.00
2018-10-16T07:37:14.875Z,952.00
2018-10-16T07:38:15.033Z,960.00
2018-10-16T07:39:14.853Z,964.00
2018-10-16T07:40:14.859Z,976.00
2018-10-16T07:41:14.823Z,984.00
2018-10-16T07:42:14.821Z,992.00
2018-10-16T07:43:14.801Z,996.00
2018-10-16T07:44:14.790Z,1004.00
2018-10-16T07:45:14.795Z,1012.00
2018-10-16T07:46:14.781Z,1020.00
2018-10-16T07:47:14.760Z,1028.00
2018-10-16T07:48:14.770Z,1036.00
2018-10-16T07:49:14.735Z,1044.00
2018-10-16T07:50:14.817Z,1052.00
2018-10-16T07:52:38.682Z,1072.00
2018-10-16T07:53:23.428Z,1080.00
2018-10-16T07:54:23.415Z,1088.00
2018-10-16T07:55:23.418Z,1100.00
2018-10-16T07:56:23.388Z,1108.00
2018-10-16T07:57:23.479Z,1120.00
2018-10-16T07:58:23.370Z,1128.00
2018-10-16T07:59:23.369Z,1136.00
2018-10-16T08:00:23.372Z,1148.00
2018-10-16T08:01:23.341Z,1160.00
2018-10-16T08:02:23.321Z,1176.00
2018-10-16T08:03:23.330Z,1192.00
2018-10-16T08:04:23.306Z,1220.00
2018-10-16T08:05:23.309Z,1252.00
2018-10-16T08:06:23.274Z,1308.00
2018-10-16T08:07:23.262Z,1408.00
2018-10-16T08:08:23.255Z,1572.00
2018-10-16T08:09:23.251Z,1788.00
2018-10-16T08:10:23.243Z,2128.00
2018-10-16T08:11:23.292Z,2756.00
2018-10-16T08:12:23.210Z,3636.00
2018-10-16T08:13:23.201Z,4604.00
2018-10-16T08:14:23.203Z,5492.00
2018-10-16T08:15:23.192Z,5936.00
2018-10-16T08:16:23.184Z,5996.00
2018-10-16T08:17:23.271Z,5912.00
2018-10-16T08:18:23.140Z,5616.00
2018-10-16T08:19:23.132Z,5132.00
2018-10-16T08:20:23.130Z,4140.00
2018-10-16T08:21:23.108Z,3244.00
2018-10-16T08:22:23.097Z,2528.00
2018-10-16T08:23:23.085Z,2152.00
2018-10-16T08:24:23.073Z,1976.00
2018-10-16T08:25:23.073Z,1888.00
2018-10-16T08:26:23.050Z,2056.00
2018-10-16T08:27:23.045Z,2496.00
2018-10-16T08:28:23.035Z,2452.00
2018-10-16T08:29:23.019Z,1752.00
2018-10-16T08:30:23.037Z,1524.00
2018-10-16T08:31:22.996Z,1532.00
2018-10-16T08:32:22.992Z,1736.00
2018-10-16T08:33:22.982Z,1976.00
2018-10-16T08:34:22.970Z,2160.00
2018-10-16T08:35:22.976Z,3072.00
2018-10-16T08:36:23.072Z,4192.00
2018-10-16T08:37:23.054Z,4828.00
2018-10-16T08:38:22.928Z,4748.00
2018-10-16T08:39:22.909Z,3636.00
2018-10-16T08:40:22.896Z,2376.00
2018-10-16T08:41:22.902Z,1756.00
2018-10-16T08:42:22.874Z,1552.00
2018-10-16T08:43:22.864Z,1444.00
2018-10-16T08:44:22.856Z,1476.00
2018-10-16T08:45:22.853Z,1500.00
2018-10-16T08:46:22.849Z,1652.00
2018-10-16T08:47:22.857Z,1712.00
2018-10-16T08:48:22.808Z,1844.00
2018-10-16T08:49:22.797Z,1680.00
2018-10-16T08:50:22.799Z,1524.00
2018-10-16T08:51:22.789Z,1508.00
2018-10-16T08:52:22.767Z,1508.00
2018-10-16T08:53:22.756Z,1516.00
2018-10-16T08:54:22.742Z,1548.00
2018-10-16T08:55:22.732Z,1612.00
2018-10-16T08:56:22.738Z,1796.00
2018-10-16T08:57:22.719Z,1976.00
2018-10-16T08:58:22.705Z,2172.00
2018-10-16T08:59:22.688Z,2508.00
2018-10-16T09:00:22.684Z,3148.00
2018-10-16T09:01:22.682Z,3336.00
2018-10-16T09:02:22.655Z,3460.00
2018-10-16T09:03:22.658Z,3640.00
2018-10-16T09:04:22.637Z,2944.00
2018-10-16T09:05:22.621Z,2552.00
2018-10-16T09:06:22.623Z,2452.00
2018-10-16T09:07:22.598Z,2360.00
2018-10-16T09:08:22.592Z,1992.00
2018-10-16T09:09:22.583Z,1872.00
2018-10-16T09:10:22.567Z,1956.00
2018-10-16T09:11:22.567Z,2280.00
2018-10-16T09:12:22.542Z,2644.00
2018-10-16T09:13:22.533Z,3264.00
2018-10-16T09:14:22.560Z,3416.00
2018-10-16T09:15:22.508Z,3140.00
2018-10-16T09:16:22.510Z,3132.00
2018-10-16T09:17:22.487Z,2848.00
2018-10-16T09:18:22.478Z,3240.00
2018-10-16T09:19:22.465Z,2956.00
2018-10-16T09:20:22.460Z,2776.00
2018-10-16T09:21:22.466Z,2708.00
2018-10-16T09:22:22.433Z,2108.00
2018-10-16T09:23:22.420Z,1800.00
2018-10-16T09:24:22.435Z,1824.00
2018-10-16T09:25:22.397Z,1848.00
2018-10-16T09:26:22.396Z,2044.00
2018-10-16T09:27:22.387Z,2108.00
2018-10-16T09:28:22.363Z,1960.00
2018-10-16T09:29:22.354Z,1908.00
2018-10-16T09:30:22.365Z,2172.00
2018-10-16T09:31:22.330Z,2352.00
2018-10-16T09:32:22.332Z,2104.00
2018-10-16T09:33:22.313Z,2056.00
2018-10-16T09:34:22.297Z,2080.00
2018-10-16T09:35:22.287Z,2248.00
2018-10-16T09:36:22.279Z,2396.00
2018-10-16T09:37:22.312Z,2208.00
2018-10-16T09:38:22.257Z,2124.00
2018-10-16T09:39:22.247Z,2252.00
2018-10-16T09:40:22.231Z,2288.00
2018-10-16T09:41:22.221Z,2036.00
2018-10-16T09:42:22.222Z,1964.00
2018-10-16T09:43:22.200Z,1948.00
2018-10-16T09:44:22.189Z,1944.00
2018-10-16T09:45:22.175Z,1956.00
2018-10-16T09:46:22.174Z,2128.00
2018-10-16T09:47:22.166Z,2092.00
2018-10-16T09:48:22.147Z,1920.00
2018-10-16T09:49:22.163Z,1864.00
2018-10-16T09:50:22.121Z,1864.00
2018-10-16T09:51:22.108Z,1988.00
2018-10-16T09:52:22.109Z,1900.00
2018-10-16T09:53:22.087Z,1868.00
2018-10-16T09:54:22.076Z,1944.00
2018-10-16T09:55:22.064Z,1968.00
2018-10-16T09:56:22.052Z,1968.00
2018-10-16T09:57:22.058Z,1936.00
2018-10-16T09:58:22.037Z,1932.00
2018-10-16T09:59:22.019Z,1912.00
2018-10-16T10:00:22.013Z,1928.00
2018-10-16T10:01:22.002Z,1936.00
2018-10-16T10:02:22.006Z,1968.00
2018-10-16T10:03:21.976Z,1984.00
2018-10-16T10:04:21.963Z,1988.00
2018-10-16T10:05:21.952Z,1976.00
2018-10-16T10:06:21.946Z,1980.00
2018-10-16T10:07:21.938Z,1972.00
2018-10-16T10:08:21.931Z,1980.00
2018-10-16T10:09:21.917Z,1992.00
2018-10-16T10:10:21.915Z,2016.00
2018-10-16T10:11:21.890Z,2024.00
2018-10-16T10:12:21.879Z,2052.00
2018-10-16T10:13:21.876Z,2152.00
2018-10-16T10:14:21.864Z,2304.00
2018-10-16T10:15:21.842Z,2356.00
2018-10-16T10:16:21.838Z,2492.00
2018-10-16T10:17:21.821Z,2796.00
2018-10-16T10:18:21.819Z,3088.00
2018-10-16T10:19:21.800Z,4072.00
2018-10-16T10:20:21.792Z,4900.00
2018-10-16T10:21:21.780Z,5592.00
2018-10-16T10:22:21.767Z,5296.00
2018-10-16T10:23:21.848Z,3928.00
2018-10-16T10:24:21.747Z,3120.00
2018-10-16T10:25:21.784Z,2628.00
2018-10-16T10:26:21.726Z,3156.00
2018-10-16T10:27:21.745Z,5140.00
2018-10-16T10:28:21.708Z,6084.00
2018-10-16T10:29:21.695Z,4456.00
2018-10-16T10:30:21.676Z,2976.00
2018-10-16T10:31:21.667Z,3744.00
2018-10-16T10:32:21.653Z,3796.00
2018-10-16T10:33:21.672Z,2464.00
2018-10-16T10:34:21.630Z,2084.00
2018-10-16T10:35:21.627Z,2096.00
2018-10-16T10:36:21.608Z,2168.00
2018-10-16T10:37:21.598Z,2144.00
2018-10-16T10:38:21.599Z,2136.00
2018-10-16T10:39:21.574Z,2144.00
2018-10-16T10:40:21.564Z,2160.00
2018-10-16T10:41:21.554Z,2624.00
2018-10-16T10:42:21.619Z,2508.00
2018-10-16T10:43:21.542Z,2176.00
2018-10-16T10:44:21.521Z,2208.00
2018-10-16T10:45:21.548Z,2220.00
2018-10-16T10:46:21.502Z,2380.00
2018-10-16T10:47:21.491Z,6796.00
2018-10-16T10:48:21.487Z,9596.00
2018-10-16T10:49:21.465Z,4828.00
2018-10-16T10:50:21.669Z,3672.00
2018-10-16T10:51:21.843Z,4408.00
2018-10-16T10:52:21.432Z,2440.00
2018-10-16T10:53:21.438Z,2480.00
2018-10-16T10:54:21.415Z,2984.00
2018-10-16T10:55:21.399Z,4820.00
2018-10-16T10:56:21.386Z,3904.00
2018-10-16T10:57:21.376Z,2180.00
2018-10-16T10:58:21.374Z,2372.00
2018-10-16T10:59:21.352Z,2108.00
2018-10-16T11:00:21.340Z,2104.00
2018-10-16T11:01:21.335Z,2120.00
2018-10-16T11:02:21.353Z,2164.00
2018-10-16T11:03:21.506Z,2220.00
2018-10-16T11:04:21.303Z,2232.00
2018-10-16T11:05:21.285Z,2220.00
2018-10-16T11:06:21.275Z,2220.00
2018-10-16T11:07:21.269Z,2236.00
2018-10-16T11:08:22.572Z,2224.00
2018-10-16T11:09:21.240Z,2224.00
2018-10-16T11:10:21.230Z,2184.00
2018-10-16T11:11:21.220Z,2184.00
2018-10-16T11:12:21.212Z,2176.00
2018-10-16T11:13:21.210Z,2188.00
2018-10-16T11:14:21.191Z,2188.00
2018-10-16T11:15:21.183Z,2188.00
2018-10-16T11:16:21.164Z,2200.00
2018-10-16T11:17:21.153Z,2188.00
2018-10-16T11:18:21.161Z,2180.00
2018-10-16T11:19:21.255Z,2180.00
2018-10-16T11:20:21.121Z,2208.00
2018-10-16T11:21:21.109Z,2244.00
2018-10-16T11:22:21.094Z,4624.00
2018-10-16T11:23:21.096Z,5164.00
2018-10-16T11:24:21.074Z,3028.00
2018-10-16T11:25:21.068Z,3196.00
2018-10-16T11:26:21.052Z,2112.00
2018-10-16T11:27:21.041Z,2624.00
2018-10-16T11:28:21.041Z,2560.00
2018-10-16T11:29:21.024Z,2436.00
2018-10-16T11:30:21.080Z,2040.00
2018-10-16T11:31:20.996Z,2056.00
2018-10-16T11:32:20.985Z,2092.00
2018-10-16T11:33:20.995Z,2212.00
2018-10-16T11:34:20.963Z,2312.00
2018-10-16T11:35:20.966Z,2064.00
2018-10-16T11:36:20.949Z,2064.00
2018-10-16T11:37:20.931Z,2064.00
2018-10-16T11:38:20.935Z,2060.00
2018-10-16T11:39:20.922Z,2060.00
2018-10-16T11:40:20.895Z,2076.00
2018-10-16T11:41:20.884Z,2092.00
2018-10-16T11:42:20.887Z,2068.00
2018-10-16T11:43:20.868Z,2060.00
2018-10-16T11:44:20.878Z,2124.00
2018-10-16T11:45:20.844Z,2104.00
2018-10-16T11:46:20.830Z,2068.00
2018-10-16T11:47:20.822Z,2056.00
2018-10-16T11:48:20.813Z,2044.00
2018-10-16T11:49:20.808Z,2048.00
2018-10-16T11:50:20.835Z,2036.00
2018-10-16T11:51:20.773Z,2032.00
2018-10-16T11:52:20.836Z,2016.00
2018-10-16T11:53:20.754Z,2008.00
2018-10-16T11:54:20.757Z,2024.00
2018-10-16T11:55:20.734Z,2020.00
2018-10-16T11:56:20.718Z,1980.00
2018-10-16T11:57:20.707Z,2044.00
2018-10-16T11:58:20.707Z,2288.00
2018-10-16T11:59:20.907Z,2240.00
2018-10-16T12:00:20.674Z,2040.00
2018-10-16T12:01:20.677Z,1984.00
2018-10-16T12:02:20.693Z,1948.00
2018-10-16T12:03:20.643Z,1932.00
2018-10-16T12:04:20.648Z,1956.00
2018-10-16T12:05:20.622Z,2004.00
2018-10-16T12:06:20.610Z,2020.00
2018-10-16T12:07:20.600Z,2224.00
2018-10-16T12:08:20.586Z,3988.00
2018-10-16T12:09:20.589Z,4372.00
2018-10-16T12:10:20.572Z,4152.00
2018-10-16T12:11:20.561Z,3988.00
2018-10-16T12:12:20.542Z,3152.00
2018-10-16T12:13:20.532Z,2396.00
2018-10-16T12:14:20.534Z,2024.00
2018-10-16T12:15:20.510Z,2068.00
2018-10-16T12:16:20.500Z,2348.00
2018-10-16T12:17:20.488Z,2248.00
2018-10-16T12:18:20.478Z,1964.00
2018-10-16T12:19:20.522Z,1868.00
2018-10-16T12:20:20.453Z,1824.00
2018-10-16T12:21:20.444Z,1900.00
2018-10-16T12:22:20.436Z,2072.00
2018-10-16T12:23:20.426Z,2312.00
2018-10-16T12:24:20.423Z,2216.00
2018-10-16T12:25:20.404Z,2016.00
2018-10-16T12:26:20.385Z,1820.00
2018-10-16T12:27:20.380Z,1748.00
2018-10-16T12:28:20.364Z,1828.00
2018-10-16T12:29:20.364Z,1864.00
2018-10-16T12:30:20.342Z,1816.00
2018-10-16T12:31:20.328Z,1792.00
2018-10-16T12:32:20.350Z,2172.00
2018-10-16T12:33:20.312Z,2924.00
2018-10-16T12:34:20.322Z,3576.00
2018-10-16T12:35:20.344Z,4248.00
2018-10-16T12:36:20.276Z,4240.00
2018-10-16T12:37:20.263Z,4600.00
2018-10-16T12:38:20.313Z,4784.00
2018-10-16T12:39:20.247Z,4160.00
2018-10-16T12:40:20.347Z,3904.00
2018-10-16T12:41:20.233Z,3820.00
2018-10-16T12:42:20.237Z,3320.00
2018-10-16T12:43:20.332Z,2632.00
2018-10-16T12:44:20.183Z,2116.00
2018-10-16T12:45:20.191Z,1844.00
2018-10-16T12:46:20.168Z,1748.00
2018-10-16T12:47:20.151Z,1700.00
2018-10-16T12:48:20.142Z,1696.00
2018-10-16T12:49:20.132Z,1668.00
2018-10-16T12:50:20.180Z,1636.00